ANA460 ROAH-RJTT
Flight info
| Callsign | ANA460 |
|---|---|
| Flight time | N/A |
| Altitude | 39000 |
| Route | ESKOB3 AMAMI Y574 SHIBK Y57 SUKBO Y571 BILLY Y21 AKSEL AKSEL2N |
| Aircraft | A359/H-SDE2E3GHIJ3J4J5LM1ORWXY/LB1D1 |
Departure
| Time | 2026-04-20 12:51 |
|---|---|
| Airport | Naha International Airport (ROAH) |
Arrival
| Time | N/A |
|---|---|
| Airport | Tokyo Haneda International Airport (RJTT) |
| Time | Latitude | Longitude | Altitude | Speed | Heading |
|---|---|---|---|---|---|
| 2026-04-20 12:33 | 26.19062 | 127.64878 | 29 ft | 0 kts | 87° |
| 2026-04-20 12:44 | 26.19062 | 127.64870 | 29 ft | 4 kts | 90° |
| 2026-04-20 12:45 | 26.19067 | 127.64843 | 26 ft | 4 kts | 126° |
| 2026-04-20 12:45 | 26.19086 | 127.64826 | 26 ft | 4 kts | 171° |
| 2026-04-20 12:45 | 26.19094 | 127.64825 | 28 ft | 0 kts | 178° |
| 2026-04-20 12:47 | 26.19043 | 127.64828 | 29 ft | 14 kts | 178° |
| 2026-04-20 12:47 | 26.18899 | 127.64834 | 29 ft | 26 kts | 178° |
| 2026-04-20 12:48 | 26.18724 | 127.64841 | 29 ft | 25 kts | 178° |
| 2026-04-20 12:48 | 26.18544 | 127.64851 | 29 ft | 26 kts | 178° |
| 2026-04-20 12:48 | 26.18366 | 127.64860 | 29 ft | 24 kts | 177° |
| 2026-04-20 12:48 | 26.18245 | 127.64796 | 28 ft | 12 kts | 259° |
| 2026-04-20 12:49 | 26.18244 | 127.64783 | 28 ft | 0 kts | 266° |
| 2026-04-20 12:49 | 26.18244 | 127.64781 | 28 ft | 1 kts | 266° |
| 2026-04-20 12:49 | 26.18243 | 127.64763 | 28 ft | 5 kts | 266° |
| 2026-04-20 12:49 | 26.18242 | 127.64706 | 27 ft | 9 kts | 276° |
| 2026-04-20 12:50 | 26.18281 | 127.64661 | 27 ft | 8 kts | 336° |
| 2026-04-20 12:50 | 26.18336 | 127.64652 | 28 ft | 8 kts | 356° |
| 2026-04-20 12:50 | 26.18475 | 127.64644 | 28 ft | 47 kts | 357° |
| 2026-04-20 12:50 | 26.19030 | 127.64618 | 30 ft | 110 kts | 356° |
| 2026-04-20 12:51 | 26.19961 | 127.64544 | 195 ft | 144 kts | 350° |
| 2026-04-20 12:51 | 26.20805 | 127.64156 | 910 ft | 125 kts | 330° |
| 2026-04-20 12:51 | 26.21770 | 127.63962 | 1087 ft | 162 kts | 1° |
| 2026-04-20 12:51 | 26.22973 | 127.64089 | 1349 ft | 187 kts | 2° |
| 2026-04-20 12:52 | 26.24335 | 127.64180 | 1645 ft | 207 kts | 359° |
| 2026-04-20 12:52 | 26.25819 | 127.63971 | 1885 ft | 225 kts | 339° |
| 2026-04-20 12:52 | 26.27284 | 127.63204 | 2275 ft | 238 kts | 330° |
| 2026-04-20 12:52 | 26.28741 | 127.62286 | 2857 ft | 243 kts | 329° |
| 2026-04-20 12:53 | 26.30220 | 127.61341 | 3462 ft | 246 kts | 329° |
| 2026-04-20 12:53 | 26.31722 | 127.60385 | 4024 ft | 250 kts | 328° |
| 2026-04-20 12:53 | 26.33242 | 127.59421 | 4605 ft | 253 kts | 328° |
| 2026-04-20 12:53 | 26.34787 | 127.58445 | 5124 ft | 258 kts | 328° |
| 2026-04-20 12:54 | 26.36364 | 127.57450 | 5668 ft | 261 kts | 327° |
| 2026-04-20 12:54 | 26.37948 | 127.56451 | 6236 ft | 263 kts | 328° |
| 2026-04-20 12:54 | 26.39515 | 127.55380 | 6765 ft | 265 kts | 320° |
| 2026-04-20 12:54 | 26.40746 | 127.53872 | 7278 ft | 264 kts | 299° |
| 2026-04-20 12:55 | 26.41308 | 127.51938 | 7805 ft | 265 kts | 276° |
| 2026-04-20 12:55 | 26.41076 | 127.49891 | 8336 ft | 271 kts | 252° |
| 2026-04-20 12:55 | 26.40104 | 127.48073 | 8875 ft | 278 kts | 234° |
| 2026-04-20 12:55 | 26.38847 | 127.46442 | 9364 ft | 283 kts | 231° |
| 2026-04-20 12:56 | 26.37524 | 127.44800 | 9906 ft | 286 kts | 232° |
| 2026-04-20 12:56 | 26.36184 | 127.43130 | 10281 ft | 295 kts | 231° |
| 2026-04-20 12:56 | 26.34576 | 127.41608 | 10439 ft | 315 kts | 213° |
| 2026-04-20 12:56 | 26.32427 | 127.40848 | 10603 ft | 336 kts | 188° |
| 2026-04-20 12:57 | 26.30035 | 127.40790 | 10791 ft | 350 kts | 181° |
| 2026-04-20 12:57 | 26.27559 | 127.40852 | 10979 ft | 362 kts | 181° |
| 2026-04-20 12:57 | 26.25001 | 127.40913 | 11166 ft | 373 kts | 181° |
| 2026-04-20 12:57 | 26.22368 | 127.40961 | 11343 ft | 383 kts | 181° |
| 2026-04-20 12:58 | 26.19675 | 127.41001 | 11590 ft | 389 kts | 181° |
| 2026-04-20 12:58 | 26.16952 | 127.41183 | 11906 ft | 396 kts | 173° |
| 2026-04-20 12:58 | 26.14298 | 127.42069 | 12182 ft | 402 kts | 155° |
| 2026-04-20 12:58 | 26.11984 | 127.43807 | 12516 ft | 404 kts | 136° |
| 2026-04-20 12:59 | 26.10238 | 127.46251 | 12845 ft | 404 kts | 117° |
| 2026-04-20 12:59 | 26.09236 | 127.49139 | 13160 ft | 401 kts | 99° |
| 2026-04-20 12:59 | 26.09046 | 127.52203 | 13493 ft | 395 kts | 81° |
| 2026-04-20 12:59 | 26.09300 | 127.54196 | 13750 ft | 393 kts | 75° |
| 2026-04-20 13:00 | 26.10042 | 127.58175 | 14155 ft | 394 kts | 73° |
| 2026-04-20 13:00 | 26.10608 | 127.61131 | 14417 ft | 397 kts | 74° |
| 2026-04-20 13:00 | 26.11176 | 127.64146 | 14712 ft | 399 kts | 74° |
| 2026-04-20 13:00 | 26.11741 | 127.67186 | 14996 ft | 402 kts | 75° |
| 2026-04-20 13:01 | 26.12304 | 127.70244 | 15310 ft | 404 kts | 75° |
| 2026-04-20 13:01 | 26.12865 | 127.73317 | 15613 ft | 407 kts | 75° |
| 2026-04-20 13:01 | 26.13431 | 127.76421 | 15857 ft | 411 kts | 75° |
| 2026-04-20 13:01 | 26.13999 | 127.79540 | 16165 ft | 413 kts | 75° |
| 2026-04-20 13:02 | 26.14571 | 127.82689 | 16476 ft | 415 kts | 75° |
| 2026-04-20 13:02 | 26.15143 | 127.85847 | 16792 ft | 418 kts | 75° |
| 2026-04-20 13:02 | 26.15744 | 127.89025 | 17152 ft | 419 kts | 73° |
| 2026-04-20 13:02 | 26.16647 | 127.92105 | 17431 ft | 418 kts | 63° |
| 2026-04-20 13:03 | 26.17514 | 127.94009 | 17609 ft | 416 kts | 56° |
| 2026-04-20 13:03 | 26.19213 | 127.96596 | 17891 ft | 413 kts | 44° |
| 2026-04-20 13:03 | 26.21314 | 127.98756 | 18178 ft | 410 kts | 34° |
| 2026-04-20 13:03 | 26.23641 | 128.00604 | 18449 ft | 411 kts | 30° |
| 2026-04-20 13:04 | 26.26882 | 128.02906 | 18806 ft | 413 kts | 28° |
| 2026-04-20 13:04 | 26.28504 | 128.04011 | 18992 ft | 414 kts | 27° |
| 2026-04-20 13:04 | 26.30969 | 128.05676 | 19271 ft | 415 kts | 27° |
| 2026-04-20 13:04 | 26.33439 | 128.07354 | 19539 ft | 417 kts | 28° |
| 2026-04-20 13:05 | 26.35910 | 128.09049 | 19805 ft | 418 kts | 28° |
| 2026-04-20 13:05 | 26.38390 | 128.10768 | 20090 ft | 419 kts | 28° |
| 2026-04-20 13:05 | 26.40870 | 128.12499 | 20353 ft | 421 kts | 28° |
| 2026-04-20 13:05 | 26.43352 | 128.14239 | 20612 ft | 423 kts | 28° |
| 2026-04-20 13:06 | 26.45845 | 128.15991 | 20871 ft | 424 kts | 28° |
| 2026-04-20 13:06 | 26.48348 | 128.17752 | 21164 ft | 425 kts | 28° |
| 2026-04-20 13:06 | 26.50815 | 128.19488 | 21487 ft | 425 kts | 28° |
| 2026-04-20 13:06 | 26.53323 | 128.21253 | 21772 ft | 426 kts | 28° |
| 2026-04-20 13:07 | 26.55832 | 128.23018 | 22017 ft | 427 kts | 28° |
| 2026-04-20 13:07 | 26.58350 | 128.24790 | 22251 ft | 429 kts | 28° |
| 2026-04-20 13:07 | 26.60881 | 128.26572 | 22509 ft | 430 kts | 28° |
| 2026-04-20 13:07 | 26.63419 | 128.28359 | 22767 ft | 431 kts | 28° |
| 2026-04-20 13:08 | 26.65956 | 128.30148 | 23017 ft | 433 kts | 28° |
| 2026-04-20 13:08 | 26.68507 | 128.31947 | 23288 ft | 434 kts | 28° |
| 2026-04-20 13:08 | 26.71070 | 128.33756 | 23575 ft | 434 kts | 28° |
| 2026-04-20 13:08 | 26.73627 | 128.35561 | 23768 ft | 436 kts | 28° |
| 2026-04-20 13:09 | 26.76163 | 128.37351 | 23930 ft | 438 kts | 28° |
| 2026-04-20 13:09 | 26.78744 | 128.39174 | 24113 ft | 440 kts | 28° |
| 2026-04-20 13:09 | 26.81332 | 128.41004 | 24276 ft | 441 kts | 28° |
| 2026-04-20 13:09 | 26.83941 | 128.42849 | 24453 ft | 443 kts | 28° |
| 2026-04-20 13:10 | 26.86551 | 128.44696 | 24651 ft | 445 kts | 28° |
| 2026-04-20 13:10 | 26.89169 | 128.46551 | 24857 ft | 446 kts | 28° |
| 2026-04-20 13:10 | 26.91796 | 128.48412 | 25039 ft | 447 kts | 28° |
| 2026-04-20 13:10 | 26.94433 | 128.50282 | 25209 ft | 449 kts | 28° |